sensor_id;sensor_type;location;lat;lon;timestamp;P1;durP1;ratioP1;P2;durP2;ratioP2
33148;SDS011;19506;51.040;3.856;2023-04-02T00:05:44;22.02;;;10.55;;
33148;SDS011;19506;51.040;3.856;2023-04-02T00:11:02;23.30;;;10.65;;
33148;SDS011;19506;51.040;3.856;2023-04-02T00:15:57;23.42;;;10.00;;
33148;SDS011;19506;51.040;3.856;2023-04-02T00:18:25;24.45;;;9.77;;
33148;SDS011;19506;51.040;3.856;2023-04-02T00:20:55;26.00;;;11.05;;
33148;SDS011;19506;51.040;3.856;2023-04-02T00:23:34;20.65;;;9.88;;
33148;SDS011;19506;51.040;3.856;2023-04-02T00:26:04;21.92;;;9.57;;
33148;SDS011;19506;51.040;3.856;2023-04-02T00:28:45;22.05;;;10.10;;
33148;SDS011;19506;51.040;3.856;2023-04-02T00:33:36;20.33;;;10.35;;
33148;SDS011;19506;51.040;3.856;2023-04-02T00:36:04;20.55;;;11.30;;
33148;SDS011;19506;51.040;3.856;2023-04-02T00:38:32;22.52;;;10.63;;
33148;SDS011;19506;51.040;3.856;2023-04-02T00:41:02;21.70;;;10.02;;
33148;SDS011;19506;51.040;3.856;2023-04-02T00:43:31;22.30;;;10.45;;
33148;SDS011;19506;51.040;3.856;2023-04-02T00:46:02;20.65;;;10.10;;
33148;SDS011;19506;51.040;3.856;2023-04-02T00:51:27;22.02;;;10.10;;
33148;SDS011;19506;51.040;3.856;2023-04-02T00:53:59;19.17;;;10.00;;
33148;SDS011;19506;51.040;3.856;2023-04-02T00:56:29;21.88;;;9.40;;
33148;SDS011;19506;51.040;3.856;2023-04-02T00:59:01;20.73;;;9.80;;
33148;SDS011;19506;51.040;3.856;2023-04-02T01:03:58;18.27;;;9.35;;
33148;SDS011;19506;51.040;3.856;2023-04-02T01:06:29;15.43;;;9.50;;
33148;SDS011;19506;51.040;3.856;2023-04-02T01:28:00;18.70;;;9.75;;
33148;SDS011;19506;51.040;3.856;2023-04-02T01:30:33;15.13;;;8.73;;
33148;SDS011;19506;51.040;3.856;2023-04-02T01:33:00;16.30;;;8.93;;
33148;SDS011;19506;51.040;3.856;2023-04-02T01:35:28;19.92;;;9.07;;
33148;SDS011;19506;51.040;3.856;2023-04-02T01:38:02;19.85;;;8.93;;
33148;SDS011;19506;51.040;3.856;2023-04-02T01:40:38;17.63;;;8.88;;
33148;SDS011;19506;51.040;3.856;2023-04-02T01:45:45;16.70;;;8.45;;
33148;SDS011;19506;51.040;3.856;2023-04-02T01:50:41;17.65;;;9.20;;
33148;SDS011;19506;51.040;3.856;2023-04-02T01:53:10;19.40;;;9.63;;
33148;SDS011;19506;51.040;3.856;2023-04-02T01:55:46;14.27;;;8.38;;
33148;SDS011;19506;51.040;3.856;2023-04-02T01:58:16;24.40;;;10.23;;
33148;SDS011;19506;51.040;3.856;2023-04-02T02:00:49;17.73;;;8.25;;
33148;SDS011;19506;51.040;3.856;2023-04-02T02:03:37;16.67;;;8.48;;
33148;SDS011;19506;51.040;3.856;2023-04-02T02:06:05;14.50;;;8.35;;
33148;SDS011;19506;51.040;3.856;2023-04-02T02:11:01;16.33;;;7.88;;
33148;SDS011;19506;51.040;3.856;2023-04-02T02:13:27;17.20;;;8.13;;
33148;SDS011;19506;51.040;3.856;2023-04-02T02:18:21;15.77;;;7.85;;
33148;SDS011;19506;51.040;3.856;2023-04-02T02:20:47;16.77;;;8.27;;
33148;SDS011;19506;51.040;3.856;2023-04-02T02:23:15;13.98;;;8.45;;
33148;SDS011;19506;51.040;3.856;2023-04-02T02:28:13;14.13;;;7.70;;
33148;SDS011;19506;51.040;3.856;2023-04-02T02:31:06;14.68;;;7.15;;
33148;SDS011;19506;51.040;3.856;2023-04-02T02:33:45;16.88;;;7.93;;
33148;SDS011;19506;51.040;3.856;2023-04-02T02:36:18;16.60;;;8.40;;
33148;SDS011;19506;51.040;3.856;2023-04-02T02:46:22;15.55;;;9.02;;
33148;SDS011;19506;51.040;3.856;2023-04-02T02:48:51;12.93;;;8.02;;
33148;SDS011;19506;51.040;3.856;2023-04-02T02:51:36;14.88;;;7.53;;
33148;SDS011;19506;51.040;3.856;2023-04-02T02:54:13;14.23;;;7.28;;
33148;SDS011;19506;51.040;3.856;2023-04-02T02:56:44;17.77;;;9.15;;
33148;SDS011;19506;51.040;3.856;2023-04-02T02:59:12;14.55;;;7.32;;
33148;SDS011;19506;51.040;3.856;2023-04-02T03:01:40;15.32;;;7.78;;
33148;SDS011;19506;51.040;3.856;2023-04-02T03:04:08;12.32;;;7.00;;
33148;SDS011;19506;51.040;3.856;2023-04-02T03:06:34;13.98;;;7.85;;
33148;SDS011;19506;51.040;3.856;2023-04-02T03:09:09;16.05;;;8.50;;
33148;SDS011;19506;51.040;3.856;2023-04-02T03:11:46;15.75;;;7.53;;
33148;SDS011;19506;51.040;3.856;2023-04-02T03:17:15;13.68;;;7.75;;
33148;SDS011;19506;51.040;3.856;2023-04-02T03:22:28;15.15;;;8.10;;
33148;SDS011;19506;51.040;3.856;2023-04-02T03:27:52;15.13;;;7.53;;
33148;SDS011;19506;51.040;3.856;2023-04-02T03:32:59;13.43;;;7.28;;
33148;SDS011;19506;51.040;3.856;2023-04-02T03:38:05;15.00;;;7.25;;
33148;SDS011;19506;51.040;3.856;2023-04-02T03:43:35;13.82;;;7.43;;
33148;SDS011;19506;51.040;3.856;2023-04-02T03:46:13;13.55;;;7.20;;
33148;SDS011;19506;51.040;3.856;2023-04-02T03:49:05;13.55;;;6.20;;
33148;SDS011;19506;51.040;3.856;2023-04-02T03:54:22;13.45;;;6.97;;
33148;SDS011;19506;51.040;3.856;2023-04-02T04:01:56;13.57;;;6.82;;
33148;SDS011;19506;51.040;3.856;2023-04-02T04:04:28;11.82;;;6.47;;
33148;SDS011;19506;51.040;3.856;2023-04-02T04:06:56;13.13;;;6.38;;
33148;SDS011;19506;51.040;3.856;2023-04-02T04:09:26;18.48;;;7.82;;
33148;SDS011;19506;51.040;3.856;2023-04-02T04:14:59;12.63;;;6.80;;
33148;SDS011;19506;51.040;3.856;2023-04-02T04:20:25;10.75;;;5.97;;
33148;SDS011;19506;51.040;3.856;2023-04-02T04:22:55;11.00;;;6.65;;
33148;SDS011;19506;51.040;3.856;2023-04-02T04:25:34;11.02;;;6.22;;
33148;SDS011;19506;51.040;3.856;2023-04-02T04:30:59;11.45;;;6.85;;
33148;SDS011;19506;51.040;3.856;2023-04-02T04:33:33;17.00;;;6.88;;
33148;SDS011;19506;51.040;3.856;2023-04-02T04:36:04;11.55;;;6.57;;
33148;SDS011;19506;51.040;3.856;2023-04-02T04:38:39;11.13;;;6.32;;
33148;SDS011;19506;51.040;3.856;2023-04-02T04:41:11;10.32;;;5.53;;
33148;SDS011;19506;51.040;3.856;2023-04-02T04:47:08;12.98;;;6.53;;
33148;SDS011;19506;51.040;3.856;2023-04-02T04:49:18;11.30;;;6.07;;
33148;SDS011;19506;51.040;3.856;2023-04-02T04:51:55;11.25;;;6.55;;
33148;SDS011;19506;51.040;3.856;2023-04-02T04:54:30;11.40;;;6.40;;
33148;SDS011;19506;51.040;3.856;2023-04-02T04:59:32;15.68;;;5.80;;
33148;SDS011;19506;51.040;3.856;2023-04-02T05:02:13;13.10;;;6.20;;
33148;SDS011;19506;51.040;3.856;2023-04-02T05:04:47;12.43;;;5.70;;
33148;SDS011;19506;51.040;3.856;2023-04-02T05:07:26;15.27;;;5.68;;
33148;SDS011;19506;51.040;3.856;2023-04-02T05:17:41;17.27;;;5.97;;
33148;SDS011;19506;51.040;3.856;2023-04-02T05:20:27;19.95;;;5.55;;
33148;SDS011;19506;51.040;3.856;2023-04-02T05:23:04;14.85;;;6.22;;
33148;SDS011;19506;51.040;3.856;2023-04-02T05:25:54;10.20;;;5.93;;
33148;SDS011;19506;51.040;3.856;2023-04-02T05:28:33;14.68;;;5.60;;
33148;SDS011;19506;51.040;3.856;2023-04-02T05:31:36;18.98;;;4.95;;
33148;SDS011;19506;51.040;3.856;2023-04-02T05:34:10;13.85;;;5.50;;
33148;SDS011;19506;51.040;3.856;2023-04-02T05:36:37;10.00;;;5.53;;
33148;SDS011;19506;51.040;3.856;2023-04-02T05:39:06;18.75;;;5.93;;
33148;SDS011;19506;51.040;3.856;2023-04-02T05:41:35;17.63;;;5.90;;
33148;SDS011;19506;51.040;3.856;2023-04-02T05:44:13;15.20;;;5.80;;
33148;SDS011;19506;51.040;3.856;2023-04-02T05:52:24;15.15;;;6.18;;
33148;SDS011;19506;51.040;3.856;2023-04-02T05:55:01;28.80;;;6.97;;
33148;SDS011;19506;51.040;3.856;2023-04-02T05:57:32;24.55;;;6.28;;
33148;SDS011;19506;51.040;3.856;2023-04-02T06:00:04;21.63;;;7.20;;
33148;SDS011;19506;51.040;3.856;2023-04-02T06:02:40;27.58;;;6.65;;
33148;SDS011;19506;51.040;3.856;2023-04-02T06:05:16;29.38;;;8.18;;
33148;SDS011;19506;51.040;3.856;2023-04-02T06:07:51;30.77;;;7.40;;
33148;SDS011;19506;51.040;3.856;2023-04-02T06:10:24;32.95;;;7.57;;
33148;SDS011;19506;51.040;3.856;2023-04-02T06:12:56;33.22;;;7.57;;
33148;SDS011;19506;51.040;3.856;2023-04-02T06:15:28;35.40;;;8.02;;
33148;SDS011;19506;51.040;3.856;2023-04-02T06:20:30;27.05;;;7.60;;
33148;SDS011;19506;51.040;3.856;2023-04-02T06:23:06;42.33;;;8.65;;
33148;SDS011;19506;51.040;3.856;2023-04-02T06:25:39;28.05;;;8.25;;
33148;SDS011;19506;51.040;3.856;2023-04-02T06:28:16;39.03;;;8.30;;
33148;SDS011;19506;51.040;3.856;2023-04-02T06:30:45;32.03;;;7.88;;
33148;SDS011;19506;51.040;3.856;2023-04-02T06:33:12;34.20;;;7.95;;
33148;SDS011;19506;51.040;3.856;2023-04-02T06:35:41;39.55;;;8.88;;
33148;SDS011;19506;51.040;3.856;2023-04-02T06:38:18;28.17;;;7.72;;
33148;SDS011;19506;51.040;3.856;2023-04-02T06:40:53;40.13;;;7.78;;
33148;SDS011;19506;51.040;3.856;2023-04-02T06:46:12;29.00;;;8.73;;
33148;SDS011;19506;51.040;3.856;2023-04-02T06:48:43;24.73;;;7.10;;
33148;SDS011;19506;51.040;3.856;2023-04-02T06:51:14;23.20;;;6.75;;
33148;SDS011;19506;51.040;3.856;2023-04-02T06:53:45;21.17;;;6.93;;
33148;SDS011;19506;51.040;3.856;2023-04-02T06:56:18;32.78;;;7.22;;
33148;SDS011;19506;51.040;3.856;2023-04-02T06:59:02;27.05;;;6.93;;
33148;SDS011;19506;51.040;3.856;2023-04-02T07:01:32;29.45;;;6.53;;
33148;SDS011;19506;51.040;3.856;2023-04-02T07:04:05;22.45;;;6.05;;
33148;SDS011;19506;51.040;3.856;2023-04-02T07:06:31;24.33;;;6.80;;
33148;SDS011;19506;51.040;3.856;2023-04-02T07:08:57;20.05;;;6.10;;
33148;SDS011;19506;51.040;3.856;2023-04-02T07:11:23;27.05;;;6.68;;
33148;SDS011;19506;51.040;3.856;2023-04-02T07:13:48;47.00;;;6.90;;
33148;SDS011;19506;51.040;3.856;2023-04-02T07:16:16;28.98;;;7.45;;
33148;SDS011;19506;51.040;3.856;2023-04-02T07:18:44;24.65;;;6.70;;
33148;SDS011;19506;51.040;3.856;2023-04-02T07:21:10;21.80;;;6.45;;
33148;SDS011;19506;51.040;3.856;2023-04-02T07:23:36;25.95;;;7.13;;
33148;SDS011;19506;51.040;3.856;2023-04-02T07:26:02;23.80;;;7.00;;
33148;SDS011;19506;51.040;3.856;2023-04-02T07:28:28;23.10;;;6.22;;
33148;SDS011;19506;51.040;3.856;2023-04-02T07:33:21;23.85;;;6.88;;
33148;SDS011;19506;51.040;3.856;2023-04-02T07:35:49;25.42;;;6.40;;
33148;SDS011;19506;51.040;3.856;2023-04-02T07:38:15;17.60;;;5.82;;
33148;SDS011;19506;51.040;3.856;2023-04-02T07:40:41;16.20;;;5.18;;
33148;SDS011;19506;51.040;3.856;2023-04-02T07:43:07;16.70;;;5.43;;
33148;SDS011;19506;51.040;3.856;2023-04-02T07:45:33;19.92;;;5.97;;
33148;SDS011;19506;51.040;3.856;2023-04-02T07:48:03;22.98;;;7.15;;
33148;SDS011;19506;51.040;3.856;2023-04-02T07:50:34;17.65;;;5.40;;
33148;SDS011;19506;51.040;3.856;2023-04-02T07:53:00;17.25;;;5.93;;
33148;SDS011;19506;51.040;3.856;2023-04-02T07:55:26;15.38;;;5.55;;
33148;SDS011;19506;51.040;3.856;2023-04-02T08:02:46;17.40;;;5.93;;
33148;SDS011;19506;51.040;3.856;2023-04-02T08:05:12;15.10;;;5.55;;
33148;SDS011;19506;51.040;3.856;2023-04-02T08:07:38;19.33;;;7.13;;
33148;SDS011;19506;51.040;3.856;2023-04-02T08:10:04;18.85;;;4.97;;
33148;SDS011;19506;51.040;3.856;2023-04-02T08:12:31;17.25;;;6.10;;
33148;SDS011;19506;51.040;3.856;2023-04-02T08:17:22;14.10;;;4.60;;
33148;SDS011;19506;51.040;3.856;2023-04-02T08:19:48;21.60;;;5.78;;
33148;SDS011;19506;51.040;3.856;2023-04-02T08:22:13;9.35;;;4.60;;
33148;SDS011;19506;51.040;3.856;2023-04-02T08:24:39;18.23;;;5.40;;
33148;SDS011;19506;51.040;3.856;2023-04-02T08:27:04;28.45;;;5.85;;
33148;SDS011;19506;51.040;3.856;2023-04-02T08:29:31;15.75;;;4.78;;
33148;SDS011;19506;51.040;3.856;2023-04-02T08:34:23;15.02;;;4.80;;
33148;SDS011;19506;51.040;3.856;2023-04-02T08:36:49;34.65;;;5.53;;
33148;SDS011;19506;51.040;3.856;2023-04-02T08:39:19;23.75;;;5.28;;
33148;SDS011;19506;51.040;3.856;2023-04-02T08:41:59;10.73;;;4.82;;
33148;SDS011;19506;51.040;3.856;2023-04-02T08:44:34;30.25;;;4.90;;
33148;SDS011;19506;51.040;3.856;2023-04-02T08:47:09;15.88;;;5.40;;
33148;SDS011;19506;51.040;3.856;2023-04-02T08:49:43;16.08;;;4.78;;
33148;SDS011;19506;51.040;3.856;2023-04-02T08:52:31;18.60;;;5.07;;
33148;SDS011;19506;51.040;3.856;2023-04-02T08:55:00;24.45;;;5.38;;
33148;SDS011;19506;51.040;3.856;2023-04-02T09:00:03;15.40;;;4.10;;
33148;SDS011;19506;51.040;3.856;2023-04-02T09:03:09;11.13;;;5.00;;
33148;SDS011;19506;51.040;3.856;2023-04-02T09:05:56;16.38;;;5.13;;
33148;SDS011;19506;51.040;3.856;2023-04-02T09:08:24;13.35;;;4.70;;
33148;SDS011;19506;51.040;3.856;2023-04-02T09:11:05;22.52;;;4.85;;
33148;SDS011;19506;51.040;3.856;2023-04-02T09:13:57;10.60;;;5.38;;
33148;SDS011;19506;51.040;3.856;2023-04-02T09:16:45;12.23;;;4.15;;
33148;SDS011;19506;51.040;3.856;2023-04-02T09:19:20;7.97;;;4.28;;
33148;SDS011;19506;51.040;3.856;2023-04-02T09:24:30;9.27;;;4.15;;
33148;SDS011;19506;51.040;3.856;2023-04-02T09:26:56;11.57;;;4.65;;
33148;SDS011;19506;51.040;3.856;2023-04-02T09:29:30;11.60;;;3.92;;
33148;SDS011;19506;51.040;3.856;2023-04-02T09:37:43;25.95;;;4.10;;
33148;SDS011;19506;51.040;3.856;2023-04-02T09:40:26;20.02;;;4.45;;
33148;SDS011;19506;51.040;3.856;2023-04-02T09:46:12;17.90;;;4.72;;
33148;SDS011;19506;51.040;3.856;2023-04-02T09:48:51;24.17;;;5.40;;
33148;SDS011;19506;51.040;3.856;2023-04-02T09:51:24;9.93;;;4.22;;
33148;SDS011;19506;51.040;3.856;2023-04-02T09:54:05;17.85;;;4.55;;
33148;SDS011;19506;51.040;3.856;2023-04-02T09:56:34;16.98;;;4.68;;
33148;SDS011;19506;51.040;3.856;2023-04-02T10:01:33;13.38;;;4.20;;
33148;SDS011;19506;51.040;3.856;2023-04-02T10:04:00;12.75;;;4.35;;
33148;SDS011;19506;51.040;3.856;2023-04-02T10:06:28;13.80;;;3.97;;
33148;SDS011;19506;51.040;3.856;2023-04-02T10:08:56;8.95;;;3.47;;
33148;SDS011;19506;51.040;3.856;2023-04-02T10:11:32;14.25;;;3.67;;
33148;SDS011;19506;51.040;3.856;2023-04-02T10:14:10;9.75;;;3.65;;
33148;SDS011;19506;51.040;3.856;2023-04-02T10:16:50;9.48;;;3.60;;
33148;SDS011;19506;51.040;3.856;2023-04-02T10:19:24;12.52;;;4.03;;
33148;SDS011;19506;51.040;3.856;2023-04-02T10:21:55;13.98;;;3.58;;
33148;SDS011;19506;51.040;3.856;2023-04-02T10:24:26;14.57;;;4.00;;
33148;SDS011;19506;51.040;3.856;2023-04-02T10:35:03;11.13;;;3.30;;
33148;SDS011;19506;51.040;3.856;2023-04-02T10:40:35;7.45;;;3.45;;
33148;SDS011;19506;51.040;3.856;2023-04-02T10:45:39;8.10;;;3.13;;
33148;SDS011;19506;51.040;3.856;2023-04-02T10:48:16;10.10;;;3.30;;
33148;SDS011;19506;51.040;3.856;2023-04-02T10:56:47;5.68;;;3.05;;
33148;SDS011;19506;51.040;3.856;2023-04-02T10:59:18;5.07;;;2.90;;
33148;SDS011;19506;51.040;3.856;2023-04-02T11:01:51;5.60;;;3.05;;
33148;SDS011;19506;51.040;3.856;2023-04-02T11:04:28;8.25;;;2.55;;
33148;SDS011;19506;51.040;3.856;2023-04-02T11:07:02;12.63;;;3.10;;
33148;SDS011;19506;51.040;3.856;2023-04-02T11:09:39;6.43;;;3.33;;
33148;SDS011;19506;51.040;3.856;2023-04-02T11:12:07;7.63;;;3.22;;
33148;SDS011;19506;51.040;3.856;2023-04-02T11:14:45;4.05;;;2.65;;
33148;SDS011;19506;51.040;3.856;2023-04-02T11:17:12;12.73;;;3.17;;
33148;SDS011;19506;51.040;3.856;2023-04-02T11:19:40;11.48;;;3.35;;
33148;SDS011;19506;51.040;3.856;2023-04-02T11:22:22;7.60;;;3.00;;
33148;SDS011;19506;51.040;3.856;2023-04-02T11:24:52;11.40;;;3.10;;
33148;SDS011;19506;51.040;3.856;2023-04-02T11:29:48;10.30;;;3.20;;
33148;SDS011;19506;51.040;3.856;2023-04-02T11:39:56;4.88;;;3.05;;
33148;SDS011;19506;51.040;3.856;2023-04-02T11:50:33;8.90;;;2.65;;
33148;SDS011;19506;51.040;3.856;2023-04-02T11:55:39;6.32;;;2.88;;
33148;SDS011;19506;51.040;3.856;2023-04-02T12:09:25;6.28;;;2.58;;
33148;SDS011;19506;51.040;3.856;2023-04-02T12:11:59;4.57;;;2.53;;
33148;SDS011;19506;51.040;3.856;2023-04-02T12:17:37;4.75;;;2.42;;
33148;SDS011;19506;51.040;3.856;2023-04-02T12:22:54;6.35;;;2.80;;
33148;SDS011;19506;51.040;3.856;2023-04-02T12:27:46;4.90;;;2.90;;
33148;SDS011;19506;51.040;3.856;2023-04-02T12:30:15;7.45;;;2.60;;
33148;SDS011;19506;51.040;3.856;2023-04-02T12:32:43;5.80;;;2.85;;
33148;SDS011;19506;51.040;3.856;2023-04-02T12:35:28;3.75;;;2.47;;
33148;SDS011;19506;51.040;3.856;2023-04-02T12:37:57;4.50;;;2.55;;
33148;SDS011;19506;51.040;3.856;2023-04-02T12:40:23;3.72;;;2.55;;
33148;SDS011;19506;51.040;3.856;2023-04-02T12:42:50;2.95;;;2.08;;
33148;SDS011;19506;51.040;3.856;2023-04-02T12:47:48;3.20;;;2.10;;
33148;SDS011;19506;51.040;3.856;2023-04-02T12:50:15;5.30;;;2.55;;
33148;SDS011;19506;51.040;3.856;2023-04-02T12:52:45;3.88;;;2.22;;
33148;SDS011;19506;51.040;3.856;2023-04-02T12:55:15;5.10;;;2.50;;
33148;SDS011;19506;51.040;3.856;2023-04-02T12:57:44;3.05;;;2.20;;
33148;SDS011;19506;51.040;3.856;2023-04-02T13:02:49;2.92;;;2.30;;
33148;SDS011;19506;51.040;3.856;2023-04-02T13:07:58;3.25;;;2.40;;
33148;SDS011;19506;51.040;3.856;2023-04-02T13:12:58;2.83;;;2.40;;
33148;SDS011;19506;51.040;3.856;2023-04-02T13:15:29;5.90;;;2.67;;
33148;SDS011;19506;51.040;3.856;2023-04-02T13:18:16;7.55;;;2.40;;
33148;SDS011;19506;51.040;3.856;2023-04-02T13:20:54;6.85;;;2.20;;
33148;SDS011;19506;51.040;3.856;2023-04-02T13:25:56;7.78;;;2.53;;
33148;SDS011;19506;51.040;3.856;2023-04-02T13:28:34;5.50;;;2.28;;
33148;SDS011;19506;51.040;3.856;2023-04-02T13:33:25;7.35;;;2.78;;
33148;SDS011;19506;51.040;3.856;2023-04-02T13:38:16;8.27;;;2.20;;
33148;SDS011;19506;51.040;3.856;2023-04-02T13:40:42;3.95;;;2.20;;
33148;SDS011;19506;51.040;3.856;2023-04-02T13:43:10;8.00;;;2.35;;
33148;SDS011;19506;51.040;3.856;2023-04-02T13:45:41;7.53;;;2.25;;
33148;SDS011;19506;51.040;3.856;2023-04-02T13:48:12;5.78;;;2.50;;
33148;SDS011;19506;51.040;3.856;2023-04-02T13:50:39;4.63;;;2.72;;
33148;SDS011;19506;51.040;3.856;2023-04-02T13:53:06;7.75;;;2.70;;
33148;SDS011;19506;51.040;3.856;2023-04-02T13:55:37;8.73;;;3.03;;
33148;SDS011;19506;51.040;3.856;2023-04-02T13:58:06;12.35;;;3.58;;
33148;SDS011;19506;51.040;3.856;2023-04-02T14:03:30;9.40;;;2.70;;
33148;SDS011;19506;51.040;3.856;2023-04-02T14:16:17;6.70;;;2.55;;
33148;SDS011;19506;51.040;3.856;2023-04-02T14:29:56;11.68;;;3.08;;
33148;SDS011;19506;51.040;3.856;2023-04-02T14:32:32;18.75;;;3.33;;
33148;SDS011;19506;51.040;3.856;2023-04-02T14:37:44;9.57;;;2.60;;
33148;SDS011;19506;51.040;3.856;2023-04-02T14:40:28;7.05;;;2.90;;
33148;SDS011;19506;51.040;3.856;2023-04-02T14:43:23;6.85;;;3.58;;
33148;SDS011;19506;51.040;3.856;2023-04-02T14:46:06;12.43;;;3.85;;
33148;SDS011;19506;51.040;3.856;2023-04-02T14:54:12;14.23;;;3.67;;
33148;SDS011;19506;51.040;3.856;2023-04-02T14:56:56;8.75;;;3.03;;
33148;SDS011;19506;51.040;3.856;2023-04-02T14:59:50;13.52;;;5.07;;
33148;SDS011;19506;51.040;3.856;2023-04-02T15:02:33;12.25;;;5.45;;
33148;SDS011;19506;51.040;3.856;2023-04-02T15:05:12;15.80;;;5.32;;
33148;SDS011;19506;51.040;3.856;2023-04-02T15:07:40;13.75;;;4.20;;
33148;SDS011;19506;51.040;3.856;2023-04-02T15:10:35;10.05;;;4.30;;
33148;SDS011;19506;51.040;3.856;2023-04-02T15:13:26;20.60;;;4.40;;
33148;SDS011;19506;51.040;3.856;2023-04-02T15:15:57;10.75;;;5.60;;
33148;SDS011;19506;51.040;3.856;2023-04-02T15:26:32;24.30;;;12.38;;
33148;SDS011;19506;51.040;3.856;2023-04-02T15:37:58;37.35;;;17.08;;
33148;SDS011;19506;51.040;3.856;2023-04-02T15:46:54;24.00;;;15.10;;
33148;SDS011;19506;51.040;3.856;2023-04-02T16:01:10;29.27;;;12.05;;
33148;SDS011;19506;51.040;3.856;2023-04-02T16:11:25;292.00;;;92.82;;
33148;SDS011;19506;51.040;3.856;2023-04-02T16:13:51;332.58;;;104.00;;
33148;SDS011;19506;51.040;3.856;2023-04-02T16:16:26;368.85;;;106.05;;
33148;SDS011;19506;51.040;3.856;2023-04-02T16:21:30;372.90;;;114.80;;
33148;SDS011;19506;51.040;3.856;2023-04-02T16:24:15;351.15;;;105.63;;
33148;SDS011;19506;51.040;3.856;2023-04-02T16:33:00;266.80;;;89.25;;
33148;SDS011;19506;51.040;3.856;2023-04-02T16:43:57;223.73;;;69.30;;
33148;SDS011;19506;51.040;3.856;2023-04-02T16:51:49;193.20;;;61.35;;
33148;SDS011;19506;51.040;3.856;2023-04-02T16:57:20;160.63;;;54.88;;
33148;SDS011;19506;51.040;3.856;2023-04-02T17:07:56;144.70;;;47.45;;
33148;SDS011;19506;51.040;3.856;2023-04-02T17:15:53;129.02;;;44.42;;
33148;SDS011;19506;51.040;3.856;2023-04-02T17:18:28;125.22;;;39.72;;
33148;SDS011;19506;51.040;3.856;2023-04-02T17:21:01;128.90;;;39.08;;
33148;SDS011;19506;51.040;3.856;2023-04-02T17:23:30;123.22;;;39.72;;
33148;SDS011;19506;51.040;3.856;2023-04-02T17:26:07;99.38;;;35.80;;
33148;SDS011;19506;51.040;3.856;2023-04-02T17:28:33;116.20;;;37.50;;
33148;SDS011;19506;51.040;3.856;2023-04-02T17:31:02;106.00;;;35.80;;
33148;SDS011;19506;51.040;3.856;2023-04-02T17:33:49;103.50;;;32.85;;
33148;SDS011;19506;51.040;3.856;2023-04-02T17:49:20;87.63;;;30.45;;
33148;SDS011;19506;51.040;3.856;2023-04-02T17:51:54;84.10;;;31.23;;
33148;SDS011;19506;51.040;3.856;2023-04-02T17:59:54;82.28;;;29.70;;
33148;SDS011;19506;51.040;3.856;2023-04-02T18:05:16;95.55;;;31.48;;
33148;SDS011;19506;51.040;3.856;2023-04-02T18:35:34;44.40;;;16.73;;
33148;SDS011;19506;51.040;3.856;2023-04-02T18:43:40;51.67;;;16.35;;
33148;SDS011;19506;51.040;3.856;2023-04-02T18:48:58;40.03;;;16.17;;
33148;SDS011;19506;51.040;3.856;2023-04-02T18:51:25;39.05;;;14.32;;
33148;SDS011;19506;51.040;3.856;2023-04-02T18:56:32;48.05;;;14.50;;
33148;SDS011;19506;51.040;3.856;2023-04-02T18:59:11;38.10;;;13.18;;
33148;SDS011;19506;51.040;3.856;2023-04-02T19:01:48;42.50;;;12.50;;
33148;SDS011;19506;51.040;3.856;2023-04-02T19:04:21;34.95;;;13.70;;
33148;SDS011;19506;51.040;3.856;2023-04-02T19:07:02;37.58;;;12.73;;
33148;SDS011;19506;51.040;3.856;2023-04-02T19:09:35;37.75;;;12.80;;
33148;SDS011;19506;51.040;3.856;2023-04-02T19:12:20;31.73;;;12.18;;
33148;SDS011;19506;51.040;3.856;2023-04-02T19:14:48;26.55;;;10.38;;
33148;SDS011;19506;51.040;3.856;2023-04-02T19:30:33;31.85;;;10.57;;
33148;SDS011;19506;51.040;3.856;2023-04-02T19:33:32;32.05;;;10.73;;
33148;SDS011;19506;51.040;3.856;2023-04-02T19:41:45;32.80;;;10.47;;
33148;SDS011;19506;51.040;3.856;2023-04-02T19:44:15;26.77;;;10.30;;
33148;SDS011;19506;51.040;3.856;2023-04-02T19:46:42;27.73;;;11.45;;
33148;SDS011;19506;51.040;3.856;2023-04-02T19:52:03;21.65;;;9.43;;
33148;SDS011;19506;51.040;3.856;2023-04-02T19:54:29;20.67;;;8.18;;
33148;SDS011;19506;51.040;3.856;2023-04-02T19:56:55;25.98;;;8.68;;
33148;SDS011;19506;51.040;3.856;2023-04-02T19:59:20;23.73;;;7.97;;
33148;SDS011;19506;51.040;3.856;2023-04-02T20:01:46;24.58;;;10.02;;
33148;SDS011;19506;51.040;3.856;2023-04-02T20:04:12;28.30;;;9.02;;
33148;SDS011;19506;51.040;3.856;2023-04-02T20:06:38;22.35;;;8.68;;
33148;SDS011;19506;51.040;3.856;2023-04-02T20:09:04;21.50;;;8.65;;
33148;SDS011;19506;51.040;3.856;2023-04-02T20:11:32;28.25;;;8.15;;
33148;SDS011;19506;51.040;3.856;2023-04-02T20:13:59;28.70;;;8.57;;
33148;SDS011;19506;51.040;3.856;2023-04-02T20:16:24;19.38;;;8.45;;
33148;SDS011;19506;51.040;3.856;2023-04-02T20:18:50;22.58;;;9.35;;
33148;SDS011;19506;51.040;3.856;2023-04-02T20:21:16;22.98;;;8.13;;
33148;SDS011;19506;51.040;3.856;2023-04-02T20:23:42;24.30;;;7.75;;
33148;SDS011;19506;51.040;3.856;2023-04-02T20:26:08;16.48;;;7.07;;
33148;SDS011;19506;51.040;3.856;2023-04-02T20:28:34;18.45;;;7.53;;
33148;SDS011;19506;51.040;3.856;2023-04-02T20:31:07;17.88;;;7.80;;
33148;SDS011;19506;51.040;3.856;2023-04-02T20:33:38;18.45;;;7.35;;
33148;SDS011;19506;51.040;3.856;2023-04-02T20:36:08;17.55;;;7.22;;
33148;SDS011;19506;51.040;3.856;2023-04-02T20:38:37;22.25;;;6.90;;
33148;SDS011;19506;51.040;3.856;2023-04-02T20:41:04;13.23;;;5.72;;
33148;SDS011;19506;51.040;3.856;2023-04-02T20:43:30;15.85;;;6.95;;
33148;SDS011;19506;51.040;3.856;2023-04-02T20:46:01;17.30;;;6.50;;
33148;SDS011;19506;51.040;3.856;2023-04-02T20:48:29;16.23;;;7.13;;
33148;SDS011;19506;51.040;3.856;2023-04-02T20:50:57;17.42;;;6.57;;
33148;SDS011;19506;51.040;3.856;2023-04-02T20:53:23;14.88;;;6.57;;
33148;SDS011;19506;51.040;3.856;2023-04-02T20:55:49;15.35;;;6.55;;
33148;SDS011;19506;51.040;3.856;2023-04-02T20:58:16;24.70;;;7.50;;
33148;SDS011;19506;51.040;3.856;2023-04-02T21:00:43;21.13;;;7.00;;
33148;SDS011;19506;51.040;3.856;2023-04-02T21:03:09;17.92;;;6.03;;
33148;SDS011;19506;51.040;3.856;2023-04-02T21:05:45;15.82;;;6.60;;
33148;SDS011;19506;51.040;3.856;2023-04-02T21:08:11;15.85;;;6.75;;
33148;SDS011;19506;51.040;3.856;2023-04-02T21:10:38;17.42;;;6.38;;
33148;SDS011;19506;51.040;3.856;2023-04-02T21:13:04;17.63;;;6.63;;
33148;SDS011;19506;51.040;3.856;2023-04-02T21:15:30;10.00;;;5.85;;
33148;SDS011;19506;51.040;3.856;2023-04-02T21:17:56;17.15;;;5.38;;
33148;SDS011;19506;51.040;3.856;2023-04-02T21:20:22;13.98;;;5.95;;
